Time;durP1;ratioP1;P1;durP2;ratioP2;P2;SDS_P1;SDS_P2;PMS_P1;PMS_P2;Temp;Humidity;BMP_temperature;BMP_pressure;BME280_temperature;BME280_humidity;BME280_pressure;Samples;Min_cycle;Max_cycle;Signal;HPM_P1;HPM_P2
2022/07/14 00:01:47;;;;;;;5.55;1.70;;;589.30;1587.20;;;;;;5115924;28;20091;-75
2022/07/14 00:04:13;;;;;;;3.17;1.65;;;589.20;1587.20;;;;;;5116378;28;20087;-75
2022/07/14 00:06:39;;;;;;;3.35;1.80;;;589.30;1587.20;;;;;;5116132;28;20081;-76
2022/07/14 00:09:05;;;;;;;4.63;1.70;;;589.30;1587.20;;;;;;5116232;28;20104;-76
2022/07/14 00:11:31;;;;;;;4.60;1.83;;;589.20;1587.20;;;;;;5116270;28;20098;-76
2022/07/14 00:13:58;;;;;;;3.08;1.60;;;589.30;1587.20;;;;;;5115983;28;20529;-76
2022/07/14 00:16:25;;;;;;;6.30;1.95;;;589.10;1587.20;;;;;;5115941;28;20026;-76
2022/07/14 00:18:51;;;;;;;4.25;1.42;;;589.10;1587.20;;;;;;5116056;28;20028;-76
2022/07/14 00:21:17;;;;;;;4.38;2.08;;;589.10;1587.20;;;;;;5116076;28;20093;-76
2022/07/14 00:23:47;;;;;;;6.13;1.80;;;589.00;1587.20;;;;;;5115289;28;20027;-76
2022/07/14 00:26:13;;;;;;;4.55;1.65;;;589.00;1612.80;;;;;;5115514;28;20086;-75
2022/07/14 00:28:39;;;;;;;4.30;1.95;;;588.90;1612.80;;;;;;5116031;28;20488;-75
2022/07/14 00:31:10;;;;;;;3.65;2.00;;;588.90;1612.80;;;;;;5115585;28;20015;-75
2022/07/14 00:33:38;;;;;;;3.67;1.88;;;588.80;1612.80;;;;;;5115854;28;20016;-75
2022/07/14 00:36:04;;;;;;;4.35;1.80;;;588.80;1612.80;;;;;;5115650;28;20039;-76
2022/07/14 00:38:30;;;;;;;8.25;2.25;;;564.10;1612.80;;;;;;5115877;28;20028;-75
2022/07/14 00:40:56;;;;;;;8.60;2.15;;;564.10;1612.80;;;;;;5101166;28;20027;-75
2022/07/14 00:43:22;;;;;;;8.13;2.13;;;564.10;1612.80;;;;;;5115635;28;20372;-75
2022/07/14 00:45:48;;;;;;;3.42;2.17;;;564.00;1638.40;;;;;;5115526;28;20465;-76
2022/07/14 00:48:14;;;;;;;4.63;1.95;;;564.00;1638.40;;;;;;5115383;28;20020;-75
2022/07/14 00:50:44;;;;;;;6.40;2.60;;;564.00;1638.40;;;;;;5115420;28;20024;-75
2022/07/14 00:53:11;;;;;;;5.10;2.42;;;564.10;1638.40;;;;;;5096883;28;20083;-75
2022/07/14 00:55:40;;;;;;;8.60;2.47;;;564.10;1638.40;;;;;;5114200;28;20040;-75
2022/07/14 00:58:06;;;;;;;5.50;2.53;;;564.00;1638.40;;;;;;5125323;27;20040;-75
2022/07/14 01:00:32;;;;;;;7.68;2.85;;;564.00;1638.40;;;;;;5104963;28;20136;-75
2022/07/14 01:02:57;;;;;;;7.28;2.75;;;564.00;1638.40;;;;;;5115275;28;20129;-75
2022/07/14 01:05:23;;;;;;;7.03;3.05;;;564.00;1638.40;;;;;;5115135;28;20036;-75
2022/07/14 01:07:50;;;;;;;6.70;2.95;;;564.00;1638.40;;;;;;5114976;28;20032;-76
2022/07/14 01:10:16;;;;;;;7.25;3.22;;;564.00;1638.40;;;;;;5115109;28;20023;-76
2022/07/14 01:12:46;;;;;;;9.05;3.10;;;564.00;1664.00;;;;;;5095837;28;20442;-76
2022/07/14 01:15:14;;;;;;;7.95;2.70;;;563.90;1664.00;;;;;;5114652;28;20488;-76
2022/07/14 01:17:40;;;;;;;6.70;3.35;;;563.80;1664.00;;;;;;5096615;28;20118;-76
2022/07/14 01:20:07;;;;;;;7.95;3.95;;;563.80;1664.00;;;;;;5114863;28;20026;-76
2022/07/14 01:22:32;;;;;;;9.38;3.97;;;563.90;1664.00;;;;;;5115009;28;20444;-76
2022/07/14 01:24:59;;;;;;;8.75;3.03;;;563.80;1664.00;;;;;;5114454;28;20063;-76
2022/07/14 01:27:24;;;;;;;10.20;3.58;;;563.80;1664.00;;;;;;5114751;28;20089;-76
2022/07/14 01:29:50;;;;;;;7.40;3.53;;;563.90;1664.00;;;;;;5114610;28;20472;-76
2022/07/14 01:32:16;;;;;;;10.15;4.20;;;563.80;1664.00;;;;;;5114321;28;20012;-76
2022/07/14 01:34:42;;;;;;;8.82;3.90;;;563.90;1664.00;;;;;;5102576;28;20089;-76
2022/07/14 01:37:08;;;;;;;11.27;3.90;;;563.80;1664.00;;;;;;5112435;28;20064;-76
2022/07/14 01:39:34;;;;;;;10.77;4.03;;;563.80;1689.60;;;;;;5086681;28;20461;-76
2022/07/14 01:41:59;;;;;;;7.68;3.60;;;563.90;1689.60;;;;;;5110087;28;20486;-76
2022/07/14 01:44:25;;;;;;;6.40;3.42;;;563.80;1689.60;;;;;;5122460;27;20030;-75
2022/07/14 01:46:51;;;;;;;6.47;3.15;;;563.80;1715.20;;;;;;5120551;27;20016;-76
2022/07/14 01:49:16;;;;;;;10.75;3.17;;;563.90;1715.20;;;;;;5081793;28;20023;-76
2022/07/14 01:51:42;;;;;;;6.43;3.22;;;563.90;1740.80;;;;;;5114406;28;20081;-76
2022/07/14 01:54:08;;;;;;;6.35;2.63;;;563.80;1740.80;;;;;;5114019;28;20019;-76
2022/07/14 01:56:39;;;;;;;4.32;2.53;;;563.90;1740.80;;;;;;5119762;27;20121;-76
2022/07/14 01:59:05;;;;;;;4.97;2.60;;;563.80;1740.80;;;;;;5109365;27;20016;-76
2022/07/14 02:01:39;;;;;;;4.07;2.20;;;563.90;1740.80;;;;;;5112201;28;20536;-76
2022/07/14 02:04:05;;;;;;;4.43;2.40;;;563.80;1766.40;;;;;;5114102;28;20080;-76
2022/07/14 02:06:31;;;;;;;4.93;2.20;;;563.80;1766.40;;;;;;5099274;28;20050;-76
2022/07/14 02:08:57;;;;;;;4.63;2.78;;;563.80;1766.40;;;;;;5113999;28;20020;-76
2022/07/14 02:14:09;;;;;;;7.20;2.47;;;563.80;1792.00;;;;;;5061750;28;20495;-76
2022/07/14 02:16:36;;;;;;;6.32;2.72;;;563.80;1792.00;;;;;;5071159;28;20056;-76
2022/07/14 02:19:03;;;;;;;5.55;1.85;;;563.70;1817.60;;;;;;5054307;28;20044;-76
2022/07/14 02:21:28;;;;;;;3.67;2.13;;;563.70;1817.60;;;;;;5069429;28;20028;-76
2022/07/14 02:23:56;;;;;;;7.10;2.28;;;563.80;1817.60;;;;;;5051765;28;20100;-76
2022/07/14 02:26:22;;;;;;;3.80;2.10;;;563.70;1843.20;;;;;;5064599;28;20037;-76
2022/07/14 02:28:48;;;;;;;6.68;2.40;;;563.60;1843.20;;;;;;5070908;28;20025;-76
2022/07/14 02:31:13;;;;;;;4.30;2.08;;;563.60;1843.20;;;;;;5070995;28;20532;-76
2022/07/14 02:33:40;;;;;;;4.60;2.00;;;563.60;1868.80;;;;;;5071124;28;20120;-76
2022/07/14 02:36:06;;;;;;;5.57;2.20;;;563.60;1868.80;;;;;;5054176;28;20024;-76
2022/07/14 02:38:32;;;;;;;4.63;2.20;;;563.60;1868.80;;;;;;5070898;28;20036;-75
2022/07/14 02:40:58;;;;;;;4.70;2.13;;;563.50;1894.40;;;;;;5071001;28;20030;-75
2022/07/14 02:43:24;;;;;;;5.63;1.88;;;563.50;1894.40;;;;;;5071014;28;20028;-75
2022/07/14 02:45:50;;;;;;;8.25;2.35;;;563.40;1894.40;;;;;;5070587;28;20028;-76
2022/07/14 02:48:16;;;;;;;6.30;2.35;;;563.40;1894.40;;;;;;5071046;28;20089;-76
2022/07/14 02:50:41;;;;;;;7.68;2.33;;;563.50;1920.00;;;;;;5067314;28;20098;-76
2022/07/14 02:53:07;;;;;;;5.78;2.10;;;563.50;1920.00;;;;;;5123506;28;20027;-76
2022/07/14 02:55:37;;;;;;;4.00;2.22;;;563.50;1945.60;;;;;;5117403;28;20476;-77
2022/07/14 02:58:04;;;;;;;3.58;1.77;;;563.30;1945.60;;;;;;5113048;28;20019;-77
2022/07/14 03:00:30;;;;;;;4.18;1.98;;;563.60;1945.60;;;;;;5091774;28;20028;-78
2022/07/14 03:02:57;;;;;;;3.83;1.80;;;563.50;1971.20;;;;;;5113481;28;20127;-79
2022/07/14 03:05:23;;;;;;;5.00;1.80;;;563.50;1971.20;;;;;;5095322;28;20024;-78
2022/07/14 03:07:49;;;;;;;14.82;2.17;;;563.50;1971.20;;;;;;5095057;28;20027;-79
2022/07/14 03:10:14;;;;;;;8.07;2.33;;;563.50;1971.20;;;;;;5081721;28;20473;-78
2022/07/14 03:12:40;;;;;;;4.72;2.10;;;563.50;1971.20;;;;;;5095609;28;20023;-78
2022/07/14 03:15:08;;;;;;;8.30;2.25;;;563.50;1996.80;;;;;;5095290;28;20038;-81
2022/07/14 03:17:34;;;;;;;3.33;1.88;;;563.50;1996.80;;;;;;5124328;27;20026;-82
2022/07/14 03:20:00;;;;;;;3.47;2.10;;;563.50;2022.40;;;;;;5121992;27;20036;-78
2022/07/14 03:22:26;;;;;;;6.40;2.33;;;563.50;2022.40;;;;;;5117397;28;20016;-78
2022/07/14 03:24:53;;;;;;;7.72;2.60;;;563.40;2048.00;;;;;;5087352;27;20062;-77
2022/07/14 03:27:18;;;;;;;3.63;2.42;;;563.40;2048.00;;;;;;5106948;28;20117;-77
2022/07/14 03:29:44;;;;;;;4.80;2.30;;;563.50;2048.00;;;;;;5117390;28;20019;-77
2022/07/14 03:32:10;;;;;;;3.40;2.00;;;563.40;2048.00;;;;;;5111453;28;20080;-79
2022/07/14 03:34:36;;;;;;;6.05;1.88;;;563.40;2048.00;;;;;;5116796;28;20035;-79
2022/07/14 03:37:01;;;;;;;4.78;2.35;;;563.40;2048.00;;;;;;5098331;28;20028;-79
2022/07/14 03:39:27;;;;;;;6.18;2.15;;;563.40;2073.60;;;;;;5117302;28;20028;-82
2022/07/14 03:41:53;;;;;;;6.20;2.47;;;563.50;2048.00;;;;;;5098190;28;20461;-78
2022/07/14 03:44:18;;;;;;;4.88;2.28;;;563.50;2073.60;;;;;;5098603;28;20420;-76
2022/07/14 03:46:45;;;;;;;8.93;2.45;;;563.40;2073.60;;;;;;5098266;28;20030;-77
2022/07/14 03:49:11;;;;;;;5.60;2.40;;;563.50;2073.60;;;;;;5097730;28;20171;-77
2022/07/14 03:51:41;;;;;;;4.88;2.05;;;563.50;2099.20;;;;;;5096312;28;20065;-79
2022/07/14 03:54:07;;;;;;;6.18;2.08;;;563.50;2099.20;;;;;;5116715;28;20466;-79
2022/07/14 03:56:32;;;;;;;5.40;2.67;;;563.50;2099.20;;;;;;5082596;28;20051;-78
2022/07/14 03:58:58;;;;;;;7.50;2.85;;;563.50;2124.80;;;;;;5090070;28;20437;-77
2022/07/14 04:01:24;;;;;;;7.05;2.72;;;563.40;2124.80;;;;;;5116413;28;20099;-78
2022/07/14 04:03:50;;;;;;;5.75;2.53;;;563.40;2150.40;;;;;;5116463;28;20024;-79
2022/07/14 04:06:15;;;;;;;10.60;2.85;;;563.40;2150.40;;;;;;5115181;28;20386;-78
2022/07/14 04:08:42;;;;;;;15.85;4.13;;;563.40;2150.40;;;;;;5116296;28;20024;-78
2022/07/14 04:11:07;;;;;;;7.03;2.67;;;563.40;2150.40;;;;;;5116581;28;20098;-78
2022/07/14 04:13:33;;;;;;;13.55;3.88;;;563.40;2150.40;;;;;;5089890;27;20054;-80
2022/07/14 04:15:59;;;;;;;9.13;2.92;;;563.40;2150.40;;;;;;5136773;27;20500;-79
2022/07/14 04:18:25;;;;;;;11.07;2.65;;;563.40;2150.40;;;;;;5119145;27;20418;-77
2022/07/14 04:20:51;;;;;;;6.45;3.03;;;563.50;2176.00;;;;;;5116831;28;20095;-80
2022/07/14 04:23:18;;;;;;;7.40;2.25;;;563.50;2201.60;;;;;;5085561;27;20021;-79
2022/07/14 04:25:44;;;;;;;4.78;2.33;;;563.50;2201.60;;;;;;5128701;27;20030;-79
2022/07/14 04:28:09;;;;;;;4.80;2.40;;;563.60;2201.60;;;;;;5101938;28;20397;-77
2022/07/14 04:30:35;;;;;;;5.78;2.50;;;563.60;2201.60;;;;;;5096966;28;20019;-79
2022/07/14 04:33:01;;;;;;;7.13;1.90;;;563.70;2201.60;;;;;;5112983;28;20027;-78
2022/07/14 04:35:27;;;;;;;5.05;2.50;;;563.70;2201.60;;;;;;5116064;28;20035;-78
2022/07/14 04:37:53;;;;;;;5.47;2.65;;;563.80;2176.00;;;;;;5115993;28;20015;-78
2022/07/14 04:40:19;;;;;;;8.73;2.83;;;563.80;2176.00;;;;;;5115936;28;20045;-79
2022/07/14 04:42:44;;;;;;;5.50;2.35;;;564.00;2176.00;;;;;;5097736;28;20022;-78
2022/07/14 04:45:10;;;;;;;2.92;2.00;;;564.00;2176.00;;;;;;5097604;28;20054;-78
2022/07/14 04:47:36;;;;;;;5.20;2.03;;;564.10;2150.40;;;;;;5115594;28;20016;-78
2022/07/14 04:52:48;;;;;;;4.72;2.30;;;588.80;2150.40;;;;;;5101384;28;20030;-80
2022/07/14 04:55:15;;;;;;;6.05;2.00;;;589.30;2099.20;;;;;;5115688;28;20043;-80
2022/07/14 04:57:41;;;;;;;4.38;1.95;;;588.90;2099.20;;;;;;5111611;27;20027;-77
2022/07/14 05:00:08;;;;;;;5.57;2.00;;;589.00;2073.60;;;;;;5097564;28;20069;-78
2022/07/14 05:02:34;;;;;;;4.90;1.92;;;589.00;2048.00;;;;;;5084216;28;20027;-80
2022/07/14 05:04:59;;;;;;;10.18;2.55;;;589.10;2048.00;;;;;;5114646;28;20019;-76
2022/07/14 05:07:25;;;;;;;6.80;2.30;;;589.20;2022.40;;;;;;5115677;28;20027;-77
2022/07/14 05:09:51;;;;;;;4.10;2.33;;;589.20;2022.40;;;;;;5115241;28;20024;-78
2022/07/14 05:12:18;;;;;;;9.38;2.22;;;589.30;2022.40;;;;;;5115413;28;20024;-81
2022/07/14 05:14:45;;;;;;;4.95;2.08;;;589.30;2022.40;;;;;;5113845;28;20036;-78
2022/07/14 05:17:11;;;;;;;4.80;1.77;;;589.40;2022.40;;;;;;5084720;28;20044;-81
2022/07/14 05:19:38;;;;;;;4.32;2.03;;;589.50;1996.80;;;;;;5096980;28;20031;-78
2022/07/14 05:22:03;;;;;;;5.95;1.95;;;589.50;1996.80;;;;;;5114959;28;20041;-80
2022/07/14 05:24:29;;;;;;;6.13;2.03;;;589.50;1971.20;;;;;;5115082;28;20151;-80
2022/07/14 05:26:58;;;;;;;6.15;2.25;;;589.60;1945.60;;;;;;5118732;27;20102;-80
2022/07/14 05:29:25;;;;;;;3.30;2.00;;;589.70;1945.60;;;;;;5107932;28;20035;-81
2022/07/14 05:31:51;;;;;;;4.63;1.80;;;589.70;1945.60;;;;;;5115426;27;20468;-78
2022/07/14 05:34:18;;;;;;;4.15;1.90;;;614.40;1945.60;;;;;;5116349;28;20102;-81
2022/07/14 05:36:43;;;;;;;4.18;2.20;;;614.40;1920.00;;;;;;5117309;28;20446;-83
2022/07/14 05:39:09;;;;;;;10.55;2.72;;;614.50;1920.00;;;;;;5118080;28;20043;-80
2022/07/14 05:41:35;;;;;;;4.53;2.13;;;614.60;1920.00;;;;;;5098012;28;20023;-81
2022/07/14 05:44:01;;;;;;;5.03;2.15;;;614.70;1894.40;;;;;;5129723;27;20020;-81
2022/07/14 05:46:26;;;;;;;5.40;2.30;;;614.70;1868.80;;;;;;5104280;28;20031;-78
2022/07/14 05:48:53;;;;;;;4.57;2.10;;;614.80;1868.80;;;;;;5092780;28;20088;-80
2022/07/14 05:51:20;;;;;;;4.45;2.17;;;614.80;1868.80;;;;;;5097118;28;20083;-81
2022/07/14 05:53:46;;;;;;;5.03;1.90;;;614.80;1868.80;;;;;;5082596;28;20051;-80
2022/07/14 05:56:16;;;;;;;3.38;2.00;;;614.90;1868.80;;;;;;5099154;27;20146;-79
2022/07/14 05:58:43;;;;;;;6.07;2.20;;;615.00;1843.20;;;;;;5116336;27;20028;-80
2022/07/14 06:01:09;;;;;;;5.30;1.70;;;615.00;1843.20;;;;;;5108576;28;20023;-79
2022/07/14 06:03:36;;;;;;;4.28;1.95;;;615.10;1843.20;;;;;;5101895;28;20020;-77
2022/07/14 06:06:04;;;;;;;7.32;2.42;;;615.20;1843.20;;;;;;5114506;28;20491;-80
2022/07/14 06:08:30;;;;;;;7.05;2.38;;;615.30;1817.60;;;;;;5114298;28;20076;-81
2022/07/14 06:10:56;;;;;;;4.00;2.25;;;640.00;1792.00;;;;;;5114514;28;20023;-81
2022/07/14 06:13:27;;;;;;;7.25;2.30;;;640.00;1792.00;;;;;;5114396;28;20046;-80
2022/07/14 06:15:54;;;;;;;3.13;2.13;;;640.20;1792.00;;;;;;5114078;28;20118;-81
2022/07/14 06:18:20;;;;;;;5.68;2.75;;;640.20;1792.00;;;;;;5114119;28;20024;-79
2022/07/14 06:20:47;;;;;;;3.80;2.00;;;640.30;1766.40;;;;;;5114045;28;20365;-80
2022/07/14 06:23:13;;;;;;;5.78;2.28;;;640.40;1766.40;;;;;;5080750;28;20020;-78
2022/07/14 06:25:39;;;;;;;6.00;2.35;;;640.50;1715.20;;;;;;5082872;28;20032;-80
2022/07/14 06:28:05;;;;;;;4.57;2.05;;;640.60;1740.80;;;;;;5096422;28;20023;-81
2022/07/14 06:30:32;;;;;;;4.55;1.92;;;640.70;1715.20;;;;;;5090954;28;20073;-79
2022/07/14 06:32:58;;;;;;;7.35;1.92;;;665.60;1740.80;;;;;;5105196;28;20019;-80
2022/07/14 06:35:24;;;;;;;2.88;1.70;;;640.90;1689.60;;;;;;5128353;27;20059;-79
2022/07/14 06:37:55;;;;;;;3.70;1.90;;;640.90;1689.60;;;;;;5095840;28;20179;-79
2022/07/14 06:40:21;;;;;;;7.13;1.90;;;665.60;1715.20;;;;;;5113820;28;20015;-78
2022/07/14 06:42:47;;;;;;;4.85;1.77;;;665.70;1715.20;;;;;;5095900;28;20031;-79
2022/07/14 06:45:13;;;;;;;4.25;1.77;;;666.20;1689.60;;;;;;5099823;28;20500;-83
2022/07/14 06:47:39;;;;;;;3.90;2.10;;;665.90;1664.00;;;;;;5102685;28;20422;-81
2022/07/14 06:50:06;;;;;;;5.10;2.33;;;665.90;1638.40;;;;;;5103837;28;20030;-77
2022/07/14 06:52:33;;;;;;;6.20;2.50;;;666.00;1638.40;;;;;;5114632;28;20012;-78
2022/07/14 06:55:00;;;;;;;3.83;1.90;;;666.20;1664.00;;;;;;5089927;28;20042;-79
2022/07/14 06:57:26;;;;;;;5.38;1.67;;;666.30;1612.80;;;;;;5096785;28;20040;-78
2022/07/14 06:59:52;;;;;;;6.13;1.85;;;666.40;1587.20;;;;;;5096434;27;20039;-79
2022/07/14 07:02:19;;;;;;;3.85;1.90;;;666.50;1587.20;;;;;;5101062;28;20031;-87
2022/07/14 07:04:46;;;;;;;6.85;2.38;;;691.20;1561.60;;;;;;5118182;27;20020;-81
2022/07/14 07:07:12;;;;;;;3.67;2.28;;;691.30;1587.20;;;;;;5118869;28;20026;-83
2022/07/14 07:09:38;;;;;;;5.20;1.73;;;691.40;1561.60;;;;;;5098354;28;20016;-81
2022/07/14 07:12:04;;;;;;;20.83;2.50;;;691.50;1561.60;;;;;;5087724;28;20035;-82
2022/07/14 07:14:30;;;;;;;5.38;2.10;;;691.60;1561.60;;;;;;5099900;28;20080;-82
2022/07/14 07:16:56;;;;;;;8.73;2.30;;;691.80;1561.60;;;;;;5118531;28;20032;-84
2022/07/14 07:19:22;;;;;;;3.67;2.20;;;691.80;1536.00;;;;;;5087443;28;20024;-82
2022/07/14 07:21:48;;;;;;;7.82;2.15;;;691.80;1536.00;;;;;;5115156;28;20029;-80
2022/07/14 07:24:14;;;;;;;4.53;2.05;;;691.90;1510.40;;;;;;5106308;28;20043;-82
2022/07/14 07:26:40;;;;;;;3.25;2.00;;;691.90;1536.00;;;;;;5097075;28;20115;-79
2022/07/14 07:29:07;;;;;;;5.35;2.25;;;692.00;1536.00;;;;;;5087529;28;20024;-79
2022/07/14 07:31:33;;;;;;;7.38;2.38;;;692.10;1510.40;;;;;;5089188;28;20556;-81
2022/07/14 07:34:00;;;;;;;9.77;3.15;;;716.80;1510.40;;;;;;5088352;28;20033;-81
2022/07/14 07:36:26;;;;;;;4.00;2.15;;;716.80;1510.40;;;;;;5089202;28;20512;-78
2022/07/14 07:38:52;;;;;;;5.15;2.40;;;717.10;1510.40;;;;;;5090828;28;20016;-79
2022/07/14 07:41:18;;;;;;;3.67;2.03;;;717.10;1484.80;;;;;;5086879;28;20027;-80
2022/07/14 07:43:44;;;;;;;3.60;1.88;;;717.10;1484.80;;;;;;5096778;28;20020;-81
2022/07/14 07:46:10;;;;;;;3.33;1.92;;;717.20;1484.80;;;;;;5096522;28;20016;-79
2022/07/14 07:48:36;;;;;;;8.50;2.65;;;717.30;1459.20;;;;;;5096549;28;20103;-83
2022/07/14 07:51:01;;;;;;;6.97;2.15;;;717.30;1459.20;;;;;;5068999;28;20024;-82
2022/07/14 07:53:27;;;;;;;4.38;2.10;;;717.40;1433.60;;;;;;5099810;28;20088;-83
2022/07/14 07:55:53;;;;;;;4.25;1.95;;;717.40;1433.60;;;;;;5090324;28;20398;-81
2022/07/14 07:58:20;;;;;;;3.85;1.98;;;717.50;1433.60;;;;;;5094935;28;20500;-82
2022/07/14 08:00:47;;;;;;;8.57;2.80;;;717.50;1459.20;;;;;;5083244;28;20024;-82
2022/07/14 08:03:13;;;;;;;4.20;2.30;;;717.60;1433.60;;;;;;5092361;28;20024;-82
2022/07/14 08:05:40;;;;;;;3.58;2.20;;;717.70;1433.60;;;;;;5095644;28;20051;-82
2022/07/14 08:08:07;;;;;;;6.50;1.95;;;717.70;1433.60;;;;;;5095185;28;20020;-81
2022/07/14 08:10:33;;;;;;;6.47;2.15;;;717.20;1433.60;;;;;;5085560;28;20476;-80
2022/07/14 08:12:59;;;;;;;5.30;2.55;;;742.40;1459.20;;;;;;5104080;28;20035;-86
2022/07/14 08:15:25;;;;;;;5.18;2.13;;;742.40;1433.60;;;;;;5084702;28;20032;-87
2022/07/14 08:17:51;;;;;;;2.78;1.60;;;742.50;1459.20;;;;;;5092829;28;20025;-83
2022/07/14 08:20:17;;;;;;;5.85;2.00;;;742.50;1433.60;;;;;;5097658;28;20028;-83
2022/07/14 08:22:42;;;;;;;3.55;1.90;;;742.60;1433.60;;;;;;5097962;28;20030;-85
2022/07/14 08:25:10;;;;;;;6.35;2.03;;;742.80;1433.60;;;;;;5115115;28;20384;-79
2022/07/14 08:27:35;;;;;;;3.50;1.65;;;742.70;1408.00;;;;;;5096733;28;20024;-80
2022/07/14 08:30:02;;;;;;;6.47;1.80;;;742.80;1408.00;;;;;;5096722;28;20020;-80
2022/07/14 08:32:37;;;;;;;6.40;2.00;;;742.90;1408.00;;;;;;5112976;28;20484;-82
2022/07/14 08:35:05;;;;;;;6.57;1.97;;;742.90;1408.00;;;;;;5115845;28;20035;-84
2022/07/14 08:37:31;;;;;;;3.30;1.73;;;743.00;1382.40;;;;;;5112028;28;20031;-83
2022/07/14 08:39:57;;;;;;;4.95;1.73;;;743.10;1408.00;;;;;;5124143;28;20049;-87
2022/07/14 08:42:23;;;;;;;8.63;2.17;;;743.10;1408.00;;;;;;5111967;28;20054;-84
2022/07/14 08:44:49;;;;;;;3.20;1.80;;;743.10;1382.40;;;;;;5095855;28;20058;-83
2022/07/14 08:47:16;;;;;;;3.40;1.95;;;743.10;1356.80;;;;;;5103948;28;20035;-80
2022/07/14 08:49:43;;;;;;;4.30;1.90;;;743.10;1356.80;;;;;;5130259;28;20019;-84
2022/07/14 08:52:11;;;;;;;5.13;1.80;;;743.30;1356.80;;;;;;5131473;28;20013;-81
2022/07/14 08:54:38;;;;;;;5.88;1.90;;;743.30;1356.80;;;;;;5128598;28;20035;-83
2022/07/14 08:57:04;;;;;;;6.88;2.35;;;768.10;1331.20;;;;;;5059890;27;1283710;-81
2022/07/14 08:59:30;;;;;;;2.80;1.83;;;768.10;1305.60;;;;;;5115303;27;20117;-79
2022/07/14 09:01:58;;;;;;;3.78;1.75;;;768.10;1305.60;;;;;;5108193;27;20048;-84
2022/07/14 09:04:24;;;;;;;3.10;1.90;;;768.20;1305.60;;;;;;5111340;27;20055;-82
2022/07/14 09:06:51;;;;;;;4.38;1.67;;;768.30;1280.00;;;;;;5104553;27;20054;-83
2022/07/14 09:09:23;;;;;;;5.82;1.80;;;768.40;1254.40;;;;;;5109544;28;20026;-81
2022/07/14 09:11:52;;;;;;;4.88;1.73;;;768.50;1254.40;;;;;;5118136;27;20054;-82
2022/07/14 09:14:19;;;;;;;4.72;1.70;;;768.60;1228.80;;;;;;5103432;27;20023;-80
2022/07/14 09:16:45;;;;;;;3.65;1.73;;;768.80;1228.80;;;;;;5096415;28;20032;-79
2022/07/14 09:19:13;;;;;;;8.20;1.65;;;768.90;1228.80;;;;;;5115220;28;20027;-83
2022/07/14 09:21:45;;;;;;;6.28;2.00;;;768.90;1203.20;;;;;;5112365;27;20019;-85
2022/07/14 09:24:14;;;;;;;2.55;1.67;;;793.70;1203.20;;;;;;5114192;27;20451;-83
2022/07/14 09:26:49;;;;;;;3.85;1.58;;;793.90;1203.20;;;;;;5095510;28;20396;-84
2022/07/14 09:29:23;;;;;;;3.38;2.15;;;794.00;1177.60;;;;;;5096704;27;20061;-83
2022/07/14 09:31:49;;;;;;;3.55;1.70;;;794.10;1177.60;;;;;;5108823;28;20027;-85
2022/07/14 09:34:31;;;;;;;6.50;1.77;;;794.00;1177.60;;;;;;5097518;27;20042;-84
2022/07/14 09:37:11;;;;;;;2.95;1.50;;;794.20;1177.60;;;;;;5110507;28;20027;-82
2022/07/14 09:39:50;;;;;;;6.65;1.70;;;794.40;1177.60;;;;;;5095707;28;20030;-78
2022/07/14 09:42:16;;;;;;;2.88;1.58;;;819.20;1152.00;;;;;;5096105;28;20066;-83
2022/07/14 09:44:42;;;;;;;4.72;1.80;;;819.30;1152.00;;;;;;5096679;28;20104;-79
2022/07/14 09:47:08;;;;;;;3.63;1.80;;;819.40;1126.40;;;;;;5114861;28;20487;-79
2022/07/14 09:49:37;;;;;;;3.50;1.65;;;819.50;1126.40;;;;;;5095016;28;20032;-82
2022/07/14 09:52:06;;;;;;;2.90;1.38;;;819.70;1100.80;;;;;;5114775;28;20073;-83
2022/07/14 09:54:48;;;;;;;2.47;1.45;;;819.80;1100.80;;;;;;5096876;28;20027;-82
2022/07/14 09:57:13;;;;;;;9.88;1.95;;;819.80;1075.20;;;;;;5114557;28;20039;-80
2022/07/14 09:59:50;;;;;;;3.22;1.35;;;820.00;1049.60;;;;;;5096128;28;20024;-79
2022/07/14 10:02:26;;;;;;;3.05;1.50;;;844.80;1100.80;;;;;;5114401;28;20042;-81
2022/07/14 10:04:54;;;;;;;4.95;1.50;;;845.00;1049.60;;;;;;5114472;28;20086;-83
2022/07/14 10:07:22;;;;;;;4.47;1.40;;;845.10;1024.00;;;;;;5096130;28;20249;-81
2022/07/14 10:09:58;;;;;;;1.55;1.15;;;845.20;1024.00;;;;;;5096056;28;20047;-81
2022/07/14 10:12:24;;;;;;;;;;;845.30;998.40;;;;;;5096751;28;20023;-83
2022/07/14 10:14:50;;;;;;;4.13;2.47;;;845.40;972.80;;;;;;5095990;28;19908;-78
2022/07/14 10:17:17;;;;;;;3.38;1.48;;;845.40;998.40;;;;;;5096087;28;20039;-83
2022/07/14 10:19:44;;;;;;;3.38;1.65;;;845.50;998.40;;;;;;5114493;28;20016;-85
2022/07/14 10:22:12;;;;;;;5.75;1.60;;;845.60;998.40;;;;;;5095598;28;20044;-83
2022/07/14 10:24:40;;;;;;;3.28;1.50;;;845.70;998.40;;;;;;5114140;28;20081;-79
2022/07/14 10:27:06;;;;;;;1.67;1.38;;;845.70;998.40;;;;;;5113685;28;20416;-80
2022/07/14 10:29:32;;;;;;;6.63;1.38;;;870.40;998.40;;;;;;5096002;28;20068;-81
2022/07/14 10:32:33;;;;;;;1.92;1.20;;;870.50;972.80;;;;;;5095271;28;20331;-79
2022/07/14 10:35:04;;;;;;;7.45;1.40;;;870.50;972.80;;;;;;5095106;28;20553;-77
2022/07/14 10:37:45;;;;;;;3.35;1.60;;;870.60;972.80;;;;;;5095168;28;20447;-79
2022/07/14 10:40:32;;;;;;;4.38;1.58;;;870.60;972.80;;;;;;5107915;28;20358;-77
2022/07/14 10:43:15;;;;;;;2.63;1.42;;;870.50;972.80;;;;;;5113162;28;20102;-79
2022/07/14 10:45:55;;;;;;;6.40;1.70;;;870.70;947.20;;;;;;5113815;28;20031;-82
2022/07/14 10:48:34;;;;;;;4.95;1.40;;;870.70;947.20;;;;;;5113682;28;20076;-79
2022/07/14 10:51:17;;;;;;;2.00;1.50;;;870.90;972.80;;;;;;5113052;28;20032;-78
2022/07/14 10:54:29;;;;;;;5.95;1.60;;;871.10;921.60;;;;;;5095227;28;20024;-78
2022/07/14 10:57:14;;;;;;;4.78;1.48;;;871.30;921.60;;;;;;5010753;28;20084;-79
2022/07/14 10:59:41;;;;;;;3.08;1.40;;;896.00;921.60;;;;;;5011025;28;20030;-80
2022/07/14 11:02:12;;;;;;;6.50;1.63;;;896.10;896.00;;;;;;5011361;28;20034;-80
2022/07/14 11:04:56;;;;;;;1.83;1.10;;;896.20;896.00;;;;;;5011248;28;20029;-78
2022/07/14 11:07:41;;;;;;;3.17;1.60;;;896.50;896.00;;;;;;5010773;28;20518;-78
2022/07/14 11:10:19;;;;;;;6.80;1.60;;;896.50;870.40;;;;;;5010894;28;20029;-77
2022/07/14 11:13:11;;;;;;;3.15;1.52;;;896.40;896.00;;;;;;5010745;28;20096;-78
2022/07/14 11:15:43;;;;;;;2.03;1.42;;;896.60;870.40;;;;;;5010937;28;20046;-80
2022/07/14 11:18:17;;;;;;;3.55;1.27;;;896.80;896.00;;;;;;4994456;28;20060;-78
2022/07/14 11:20:55;;;;;;;3.27;1.73;;;896.80;896.00;;;;;;4994206;28;20037;-77
2022/07/14 11:23:24;;;;;;;6.18;1.35;;;896.60;870.40;;;;;;4994084;28;20065;-77
2022/07/14 11:25:51;;;;;;;3.38;1.70;;;896.40;896.00;;;;;;5010895;28;20034;-77
2022/07/14 11:28:32;;;;;;;2.15;1.35;;;896.40;896.00;;;;;;5041943;28;20033;-76
2022/07/14 11:31:20;;;;;;;4.28;1.52;;;896.60;896.00;;;;;;5070296;28;20107;-78
2022/07/14 11:36:33;;;;;;;4.03;1.58;;;896.80;921.60;;;;;;5070234;28;20071;-83
2022/07/14 11:39:18;;;;;;;5.93;1.60;;;896.80;896.00;;;;;;5072661;28;20043;-80
2022/07/14 11:41:48;;;;;;;3.15;1.85;;;896.90;870.40;;;;;;5057801;28;20029;-77
2022/07/14 11:44:35;;;;;;;2.67;1.40;;;921.70;921.60;;;;;;5057515;28;20021;-79
2022/07/14 11:47:04;;;;;;;5.10;1.50;;;921.70;870.40;;;;;;5074670;28;20046;-80
2022/07/14 11:49:31;;;;;;;5.43;1.80;;;896.90;844.80;;;;;;5056775;28;20045;-77
2022/07/14 11:51:58;;;;;;;4.32;1.65;;;896.90;870.40;;;;;;5084935;28;20023;-77
2022/07/14 11:54:25;;;;;;;7.07;1.77;;;896.90;870.40;;;;;;5116139;28;20030;-77
2022/07/14 11:57:01;;;;;;;4.70;1.77;;;896.90;870.40;;;;;;5101704;28;20079;-82
2022/07/14 11:59:27;;;;;;;5.03;1.50;;;921.60;921.60;;;;;;5077940;28;20020;-78
2022/07/14 12:02:04;;;;;;;3.95;1.40;;;921.80;921.60;;;;;;5096013;28;20020;-83
2022/07/14 12:04:30;;;;;;;2.55;1.52;;;921.90;921.60;;;;;;5078438;28;20028;-86
2022/07/14 12:06:56;;;;;;;5.20;1.75;;;922.00;896.00;;;;;;5097370;28;20497;-80
2022/07/14 12:09:30;;;;;;;2.78;1.60;;;921.70;896.00;;;;;;5096080;28;20568;-78
2022/07/14 12:11:57;;;;;;;2.28;1.00;;;921.70;921.60;;;;;;5096073;28;20103;-78
2022/07/14 12:14:24;;;;;;;3.88;1.58;;;921.60;921.60;;;;;;5095782;28;20072;-80
2022/07/14 12:16:50;;;;;;;2.58;1.20;;;921.70;896.00;;;;;;5096051;28;20020;-77
2022/07/14 12:19:30;;;;;;;2.22;1.45;;;896.90;870.40;;;;;;5080439;28;20077;-82
2022/07/14 12:22:00;;;;;;;3.97;1.50;;;921.60;896.00;;;;;;5085727;28;20032;-77
2022/07/14 12:24:27;;;;;;;4.13;1.27;;;921.80;870.40;;;;;;5100123;28;20031;-77
2022/07/14 12:26:56;;;;;;;2.47;1.58;;;921.80;870.40;;;;;;5103047;28;20028;-81
2022/07/14 12:29:22;;;;;;;3.53;1.63;;;921.70;870.40;;;;;;5096147;28;20503;-79
2022/07/14 12:31:48;;;;;;;1.38;1.20;;;896.90;844.80;;;;;;5077874;28;20020;-84